sensor_id;sensor_type;location;lat;lon;timestamp;P1;durP1;ratioP1;P2;durP2;ratioP2
12784;SDS011;6456;42.680;23.260;2023-07-29T00:01:31;3.03;;;2.43;;
12784;SDS011;6456;42.680;23.260;2023-07-29T00:03:58;3.97;;;2.20;;
12784;SDS011;6456;42.680;23.260;2023-07-29T00:06:25;2.73;;;2.53;;
12784;SDS011;6456;42.680;23.260;2023-07-29T00:08:52;2.57;;;2.30;;
12784;SDS011;6456;42.680;23.260;2023-07-29T00:11:19;3.20;;;2.10;;
12784;SDS011;6456;42.680;23.260;2023-07-29T00:13:46;4.03;;;2.67;;
12784;SDS011;6456;42.680;23.260;2023-07-29T00:16:16;3.00;;;2.60;;
12784;SDS011;6456;42.680;23.260;2023-07-29T00:18:46;3.00;;;2.80;;
12784;SDS011;6456;42.680;23.260;2023-07-29T00:21:13;3.20;;;2.90;;
12784;SDS011;6456;42.680;23.260;2023-07-29T00:23:40;3.43;;;2.63;;
12784;SDS011;6456;42.680;23.260;2023-07-29T00:26:07;3.53;;;3.13;;
12784;SDS011;6456;42.680;23.260;2023-07-29T00:28:33;5.83;;;3.50;;
12784;SDS011;6456;42.680;23.260;2023-07-29T00:31:01;3.67;;;3.23;;
12784;SDS011;6456;42.680;23.260;2023-07-29T00:33:29;4.87;;;3.23;;
12784;SDS011;6456;42.680;23.260;2023-07-29T00:35:56;3.40;;;3.10;;
12784;SDS011;6456;42.680;23.260;2023-07-29T00:38:26;4.23;;;3.17;;
12784;SDS011;6456;42.680;23.260;2023-07-29T00:40:53;4.17;;;2.93;;
12784;SDS011;6456;42.680;23.260;2023-07-29T00:43:20;4.10;;;3.17;;
12784;SDS011;6456;42.680;23.260;2023-07-29T00:45:47;3.10;;;2.80;;
12784;SDS011;6456;42.680;23.260;2023-07-29T00:48:14;2.70;;;2.50;;
12784;SDS011;6456;42.680;23.260;2023-07-29T00:50:43;4.33;;;3.00;;
12784;SDS011;6456;42.680;23.260;2023-07-29T00:53:10;2.80;;;2.60;;
12784;SDS011;6456;42.680;23.260;2023-07-29T00:55:37;2.87;;;2.57;;
12784;SDS011;6456;42.680;23.260;2023-07-29T00:58:04;2.60;;;2.40;;
12784;SDS011;6456;42.680;23.260;2023-07-29T01:00:31;2.80;;;2.60;;
12784;SDS011;6456;42.680;23.260;2023-07-29T01:02:58;3.20;;;2.70;;
12784;SDS011;6456;42.680;23.260;2023-07-29T01:05:25;2.90;;;2.70;;
12784;SDS011;6456;42.680;23.260;2023-07-29T01:08:05;3.30;;;2.70;;
12784;SDS011;6456;42.680;23.260;2023-07-29T01:10:45;3.27;;;2.97;;
12784;SDS011;6456;42.680;23.260;2023-07-29T01:13:22;3.60;;;2.87;;
12784;SDS011;6456;42.680;23.260;2023-07-29T01:15:55;3.37;;;2.67;;
12784;SDS011;6456;42.680;23.260;2023-07-29T01:18:26;2.63;;;2.43;;
12784;SDS011;6456;42.680;23.260;2023-07-29T01:20:58;5.23;;;2.87;;
12784;SDS011;6456;42.680;23.260;2023-07-29T01:23:30;4.93;;;3.10;;
12784;SDS011;6456;42.680;23.260;2023-07-29T01:25:57;2.97;;;2.77;;
12784;SDS011;6456;42.680;23.260;2023-07-29T01:28:24;3.80;;;3.03;;
12784;SDS011;6456;42.680;23.260;2023-07-29T01:30:53;3.83;;;3.43;;
12784;SDS011;6456;42.680;23.260;2023-07-29T01:33:30;3.70;;;3.40;;
12784;SDS011;6456;42.680;23.260;2023-07-29T01:36:04;3.00;;;2.80;;
12784;SDS011;6456;42.680;23.260;2023-07-29T01:38:38;4.30;;;3.30;;
12784;SDS011;6456;42.680;23.260;2023-07-29T01:41:08;3.33;;;2.97;;
12784;SDS011;6456;42.680;23.260;2023-07-29T01:43:35;4.37;;;3.27;;
12784;SDS011;6456;42.680;23.260;2023-07-29T01:46:08;6.13;;;2.93;;
12784;SDS011;6456;42.680;23.260;2023-07-29T01:48:36;4.03;;;3.40;;
12784;SDS011;6456;42.680;23.260;2023-07-29T01:51:03;4.07;;;2.93;;
12784;SDS011;6456;42.680;23.260;2023-07-29T01:53:29;4.30;;;3.37;;
12784;SDS011;6456;42.680;23.260;2023-07-29T01:55:58;5.30;;;3.27;;
12784;SDS011;6456;42.680;23.260;2023-07-29T01:58:24;3.47;;;3.17;;
12784;SDS011;6456;42.680;23.260;2023-07-29T02:00:51;3.90;;;3.40;;
12784;SDS011;6456;42.680;23.260;2023-07-29T02:03:18;6.00;;;3.47;;
12784;SDS011;6456;42.680;23.260;2023-07-29T02:05:45;5.97;;;2.87;;
12784;SDS011;6456;42.680;23.260;2023-07-29T02:08:12;3.83;;;3.50;;
12784;SDS011;6456;42.680;23.260;2023-07-29T02:10:39;4.53;;;3.67;;
12784;SDS011;6456;42.680;23.260;2023-07-29T02:13:09;3.47;;;3.17;;
12784;SDS011;6456;42.680;23.260;2023-07-29T02:15:36;4.03;;;3.07;;
12784;SDS011;6456;42.680;23.260;2023-07-29T02:18:02;3.17;;;2.97;;
12784;SDS011;6456;42.680;23.260;2023-07-29T02:20:31;5.97;;;3.50;;
12784;SDS011;6456;42.680;23.260;2023-07-29T02:22:58;6.50;;;4.03;;
12784;SDS011;6456;42.680;23.260;2023-07-29T02:25:25;8.13;;;4.87;;
12784;SDS011;6456;42.680;23.260;2023-07-29T02:27:52;6.60;;;4.40;;
12784;SDS011;6456;42.680;23.260;2023-07-29T02:30:20;5.80;;;4.10;;
12784;SDS011;6456;42.680;23.260;2023-07-29T02:32:47;5.93;;;4.33;;
12784;SDS011;6456;42.680;23.260;2023-07-29T02:35:14;5.40;;;3.93;;
12784;SDS011;6456;42.680;23.260;2023-07-29T02:37:41;7.60;;;4.13;;
12784;SDS011;6456;42.680;23.260;2023-07-29T02:40:08;10.17;;;7.80;;
12784;SDS011;6456;42.680;23.260;2023-07-29T02:42:36;10.10;;;7.17;;
12784;SDS011;6456;42.680;23.260;2023-07-29T02:45:03;6.57;;;5.57;;
12784;SDS011;6456;42.680;23.260;2023-07-29T02:47:36;5.97;;;4.10;;
12784;SDS011;6456;42.680;23.260;2023-07-29T02:50:03;5.10;;;3.80;;
12784;SDS011;6456;42.680;23.260;2023-07-29T02:52:30;3.83;;;3.53;;
12784;SDS011;6456;42.680;23.260;2023-07-29T02:54:57;5.17;;;4.40;;
12784;SDS011;6456;42.680;23.260;2023-07-29T02:57:24;4.40;;;3.97;;
12784;SDS011;6456;42.680;23.260;2023-07-29T02:59:51;5.30;;;4.80;;
12784;SDS011;6456;42.680;23.260;2023-07-29T03:02:18;6.03;;;4.93;;
12784;SDS011;6456;42.680;23.260;2023-07-29T03:04:46;10.50;;;7.60;;
12784;SDS011;6456;42.680;23.260;2023-07-29T03:07:14;7.80;;;7.00;;
12784;SDS011;6456;42.680;23.260;2023-07-29T03:09:41;9.60;;;6.67;;
12784;SDS011;6456;42.680;23.260;2023-07-29T03:12:09;7.73;;;5.93;;
12784;SDS011;6456;42.680;23.260;2023-07-29T03:14:36;7.53;;;6.30;;
12784;SDS011;6456;42.680;23.260;2023-07-29T03:17:03;10.30;;;6.97;;
12784;SDS011;6456;42.680;23.260;2023-07-29T03:19:30;8.53;;;7.33;;
12784;SDS011;6456;42.680;23.260;2023-07-29T03:21:58;7.57;;;5.93;;
12784;SDS011;6456;42.680;23.260;2023-07-29T03:24:25;7.37;;;5.37;;
12784;SDS011;6456;42.680;23.260;2023-07-29T03:26:52;9.63;;;5.60;;
12784;SDS011;6456;42.680;23.260;2023-07-29T03:29:19;13.13;;;6.77;;
12784;SDS011;6456;42.680;23.260;2023-07-29T03:31:46;14.07;;;7.17;;
12784;SDS011;6456;42.680;23.260;2023-07-29T03:34:12;10.33;;;5.83;;
12784;SDS011;6456;42.680;23.260;2023-07-29T03:36:39;5.80;;;5.20;;
12784;SDS011;6456;42.680;23.260;2023-07-29T03:39:08;7.10;;;4.70;;
12784;SDS011;6456;42.680;23.260;2023-07-29T03:41:35;4.53;;;4.13;;
12784;SDS011;6456;42.680;23.260;2023-07-29T03:44:01;4.90;;;3.57;;
12784;SDS011;6456;42.680;23.260;2023-07-29T03:46:28;5.50;;;4.00;;
12784;SDS011;6456;42.680;23.260;2023-07-29T03:48:55;4.57;;;3.63;;
12784;SDS011;6456;42.680;23.260;2023-07-29T03:51:22;7.00;;;3.90;;
12784;SDS011;6456;42.680;23.260;2023-07-29T03:53:49;4.53;;;3.83;;
12784;SDS011;6456;42.680;23.260;2023-07-29T03:56:18;5.00;;;3.90;;
12784;SDS011;6456;42.680;23.260;2023-07-29T03:58:45;7.83;;;4.27;;
12784;SDS011;6456;42.680;23.260;2023-07-29T04:01:13;4.10;;;3.70;;
12784;SDS011;6456;42.680;23.260;2023-07-29T04:03:40;4.87;;;3.80;;
12784;SDS011;6456;42.680;23.260;2023-07-29T04:06:07;4.77;;;4.07;;
12784;SDS011;6456;42.680;23.260;2023-07-29T04:08:33;6.60;;;4.37;;
12784;SDS011;6456;42.680;23.260;2023-07-29T04:11:00;4.77;;;4.27;;
12784;SDS011;6456;42.680;23.260;2023-07-29T04:13:29;6.67;;;4.20;;
12784;SDS011;6456;42.680;23.260;2023-07-29T04:15:56;6.73;;;4.50;;
12784;SDS011;6456;42.680;23.260;2023-07-29T04:18:23;9.10;;;5.30;;
12784;SDS011;6456;42.680;23.260;2023-07-29T04:20:49;5.43;;;4.17;;
12784;SDS011;6456;42.680;23.260;2023-07-29T04:23:17;7.53;;;4.40;;
12784;SDS011;6456;42.680;23.260;2023-07-29T04:25:43;4.23;;;3.83;;
12784;SDS011;6456;42.680;23.260;2023-07-29T04:28:10;5.93;;;4.20;;
12784;SDS011;6456;42.680;23.260;2023-07-29T04:30:39;5.87;;;4.30;;
12784;SDS011;6456;42.680;23.260;2023-07-29T04:33:05;7.27;;;4.60;;
12784;SDS011;6456;42.680;23.260;2023-07-29T04:35:32;7.93;;;4.87;;
12784;SDS011;6456;42.680;23.260;2023-07-29T04:37:59;4.53;;;4.13;;
12784;SDS011;6456;42.680;23.260;2023-07-29T04:40:26;4.33;;;3.80;;
12784;SDS011;6456;42.680;23.260;2023-07-29T04:42:53;6.77;;;4.87;;
12784;SDS011;6456;42.680;23.260;2023-07-29T04:45:19;7.90;;;4.50;;
12784;SDS011;6456;42.680;23.260;2023-07-29T04:47:48;5.57;;;4.97;;
12784;SDS011;6456;42.680;23.260;2023-07-29T04:50:15;5.27;;;4.73;;
12784;SDS011;6456;42.680;23.260;2023-07-29T04:52:42;5.40;;;4.57;;
12784;SDS011;6456;42.680;23.260;2023-07-29T04:55:08;6.47;;;4.77;;
12784;SDS011;6456;42.680;23.260;2023-07-29T04:57:35;5.70;;;5.20;;
12784;SDS011;6456;42.680;23.260;2023-07-29T05:00:02;4.87;;;4.43;;
12784;SDS011;6456;42.680;23.260;2023-07-29T05:02:30;7.17;;;4.93;;
12784;SDS011;6456;42.680;23.260;2023-07-29T05:04:58;6.10;;;5.10;;
12784;SDS011;6456;42.680;23.260;2023-07-29T05:07:25;6.90;;;5.60;;
12784;SDS011;6456;42.680;23.260;2023-07-29T05:09:52;5.57;;;5.07;;
12784;SDS011;6456;42.680;23.260;2023-07-29T05:12:19;7.00;;;5.70;;
12784;SDS011;6456;42.680;23.260;2023-07-29T05:14:46;8.33;;;5.63;;
12784;SDS011;6456;42.680;23.260;2023-07-29T05:17:13;5.97;;;5.37;;
12784;SDS011;6456;42.680;23.260;2023-07-29T05:19:40;6.03;;;5.30;;
12784;SDS011;6456;42.680;23.260;2023-07-29T05:22:08;8.23;;;5.60;;
12784;SDS011;6456;42.680;23.260;2023-07-29T05:24:36;8.27;;;5.43;;
12784;SDS011;6456;42.680;23.260;2023-07-29T05:27:03;8.33;;;5.53;;
12784;SDS011;6456;42.680;23.260;2023-07-29T05:29:30;7.77;;;5.07;;
12784;SDS011;6456;42.680;23.260;2023-07-29T05:31:57;5.67;;;5.07;;
12784;SDS011;6456;42.680;23.260;2023-07-29T05:34:24;5.93;;;4.70;;
12784;SDS011;6456;42.680;23.260;2023-07-29T05:36:50;6.80;;;5.17;;
12784;SDS011;6456;42.680;23.260;2023-07-29T05:39:19;6.80;;;5.70;;
12784;SDS011;6456;42.680;23.260;2023-07-29T05:41:46;6.33;;;5.73;;
12784;SDS011;6456;42.680;23.260;2023-07-29T05:44:13;6.23;;;5.30;;
12784;SDS011;6456;42.680;23.260;2023-07-29T05:46:40;5.37;;;4.73;;
12784;SDS011;6456;42.680;23.260;2023-07-29T05:49:06;5.27;;;4.77;;
12784;SDS011;6456;42.680;23.260;2023-07-29T05:51:33;6.77;;;5.37;;
12784;SDS011;6456;42.680;23.260;2023-07-29T05:54:00;5.90;;;4.90;;
12784;SDS011;6456;42.680;23.260;2023-07-29T05:56:29;7.23;;;4.70;;
12784;SDS011;6456;42.680;23.260;2023-07-29T05:58:56;7.37;;;5.20;;
12784;SDS011;6456;42.680;23.260;2023-07-29T06:01:23;7.27;;;5.10;;
12784;SDS011;6456;42.680;23.260;2023-07-29T06:03:50;5.87;;;4.87;;
12784;SDS011;6456;42.680;23.260;2023-07-29T06:06:17;8.60;;;5.00;;
12784;SDS011;6456;42.680;23.260;2023-07-29T06:08:44;5.40;;;4.87;;
12784;SDS011;6456;42.680;23.260;2023-07-29T06:11:10;5.87;;;5.07;;
12784;SDS011;6456;42.680;23.260;2023-07-29T06:13:39;11.60;;;5.10;;
12784;SDS011;6456;42.680;23.260;2023-07-29T06:16:04;6.23;;;5.30;;
12784;SDS011;6456;42.680;23.260;2023-07-29T06:18:31;6.27;;;5.20;;
12784;SDS011;6456;42.680;23.260;2023-07-29T06:20:58;7.60;;;4.60;;
12784;SDS011;6456;42.680;23.260;2023-07-29T06:23:25;8.47;;;5.70;;
12784;SDS011;6456;42.680;23.260;2023-07-29T06:25:52;7.27;;;5.27;;
12784;SDS011;6456;42.680;23.260;2023-07-29T06:28:19;6.03;;;5.23;;
12784;SDS011;6456;42.680;23.260;2023-07-29T06:30:47;6.67;;;4.93;;
12784;SDS011;6456;42.680;23.260;2023-07-29T06:33:14;6.97;;;5.47;;
12784;SDS011;6456;42.680;23.260;2023-07-29T06:35:41;7.17;;;5.17;;
12784;SDS011;6456;42.680;23.260;2023-07-29T06:38:08;6.10;;;5.50;;
12784;SDS011;6456;42.680;23.260;2023-07-29T06:40:35;8.90;;;4.80;;
12784;SDS011;6456;42.680;23.260;2023-07-29T06:43:02;5.47;;;4.43;;
12784;SDS011;6456;42.680;23.260;2023-07-29T06:45:29;5.33;;;4.50;;
12784;SDS011;6456;42.680;23.260;2023-07-29T06:47:57;4.80;;;4.30;;
12784;SDS011;6456;42.680;23.260;2023-07-29T06:50:25;6.40;;;4.20;;
12784;SDS011;6456;42.680;23.260;2023-07-29T06:52:52;4.80;;;4.30;;
12784;SDS011;6456;42.680;23.260;2023-07-29T06:55:18;7.03;;;4.70;;
12784;SDS011;6456;42.680;23.260;2023-07-29T06:57:45;4.83;;;3.80;;
12784;SDS011;6456;42.680;23.260;2023-07-29T07:00:12;5.50;;;3.75;;
12784;SDS011;6456;42.680;23.260;2023-07-29T07:02:39;4.50;;;3.83;;
12784;SDS011;6456;42.680;23.260;2023-07-29T07:05:08;5.13;;;4.37;;
12784;SDS011;6456;42.680;23.260;2023-07-29T07:07:35;4.23;;;3.93;;
12784;SDS011;6456;42.680;23.260;2023-07-29T07:10:03;4.53;;;3.40;;
12784;SDS011;6456;42.680;23.260;2023-07-29T07:12:31;5.63;;;4.07;;
12784;SDS011;6456;42.680;23.260;2023-07-29T07:14:58;4.43;;;3.58;;
12784;SDS011;6456;42.680;23.260;2023-07-29T07:17:27;3.42;;;3.13;;
12784;SDS011;6456;42.680;23.260;2023-07-29T07:19:54;4.25;;;3.88;;
12784;SDS011;6456;42.680;23.260;2023-07-29T07:22:22;4.65;;;3.63;;
12784;SDS011;6456;42.680;23.260;2023-07-29T07:24:49;4.45;;;4.05;;
12784;SDS011;6456;42.680;23.260;2023-07-29T07:27:16;5.78;;;4.20;;
12784;SDS011;6456;42.680;23.260;2023-07-29T07:29:43;4.82;;;3.95;;
12784;SDS011;6456;42.680;23.260;2023-07-29T07:32:10;4.50;;;4.10;;
12784;SDS011;6456;42.680;23.260;2023-07-29T07:34:37;4.82;;;4.43;;
12784;SDS011;6456;42.680;23.260;2023-07-29T07:37:04;11.02;;;4.93;;
12784;SDS011;6456;42.680;23.260;2023-07-29T07:39:32;5.78;;;5.20;;
12784;SDS011;6456;42.680;23.260;2023-07-29T07:41:59;5.20;;;4.70;;
12784;SDS011;6456;42.680;23.260;2023-07-29T07:44:26;5.47;;;4.40;;
12784;SDS011;6456;42.680;23.260;2023-07-29T07:46:53;5.45;;;4.57;;
12784;SDS011;6456;42.680;23.260;2023-07-29T07:49:19;4.95;;;4.45;;
12784;SDS011;6456;42.680;23.260;2023-07-29T07:51:46;6.75;;;4.60;;
12784;SDS011;6456;42.680;23.260;2023-07-29T07:54:13;5.45;;;4.35;;
12784;SDS011;6456;42.680;23.260;2023-07-29T07:56:42;4.97;;;4.45;;
12784;SDS011;6456;42.680;23.260;2023-07-29T07:59:09;4.78;;;4.05;;
12784;SDS011;6456;42.680;23.260;2023-07-29T08:01:36;5.90;;;4.18;;
12784;SDS011;6456;42.680;23.260;2023-07-29T08:04:03;4.32;;;3.92;;
12784;SDS011;6456;42.680;23.260;2023-07-29T08:06:30;7.47;;;4.05;;
12784;SDS011;6456;42.680;23.260;2023-07-29T08:08:57;4.70;;;3.80;;
12784;SDS011;6456;42.680;23.260;2023-07-29T08:11:24;5.35;;;3.80;;
12784;SDS011;6456;42.680;23.260;2023-07-29T08:13:53;5.45;;;4.05;;
12784;SDS011;6456;42.680;23.260;2023-07-29T08:16:20;5.47;;;3.90;;
12784;SDS011;6456;42.680;23.260;2023-07-29T08:18:46;5.18;;;3.80;;
12784;SDS011;6456;42.680;23.260;2023-07-29T08:21:13;4.90;;;3.60;;
12784;SDS011;6456;42.680;23.260;2023-07-29T08:23:40;5.90;;;4.13;;
12784;SDS011;6456;42.680;23.260;2023-07-29T08:26:07;4.57;;;3.80;;
12784;SDS011;6456;42.680;23.260;2023-07-29T08:28:34;4.90;;;4.03;;
12784;SDS011;6456;42.680;23.260;2023-07-29T08:31:04;7.10;;;3.83;;
12784;SDS011;6456;42.680;23.260;2023-07-29T08:33:32;4.03;;;3.65;;
12784;SDS011;6456;42.680;23.260;2023-07-29T08:35:59;5.38;;;3.47;;
12784;SDS011;6456;42.680;23.260;2023-07-29T08:38:26;4.50;;;3.28;;
12784;SDS011;6456;42.680;23.260;2023-07-29T08:40:54;4.00;;;3.65;;
12784;SDS011;6456;42.680;23.260;2023-07-29T08:43:26;4.32;;;3.35;;
12784;SDS011;6456;42.680;23.260;2023-07-29T08:45:56;5.50;;;3.53;;
12784;SDS011;6456;42.680;23.260;2023-07-29T08:48:27;5.18;;;3.45;;
12784;SDS011;6456;42.680;23.260;2023-07-29T08:50:58;5.43;;;3.13;;
12784;SDS011;6456;42.680;23.260;2023-07-29T08:53:27;8.82;;;3.50;;
12784;SDS011;6456;42.680;23.260;2023-07-29T08:55:55;3.70;;;3.40;;
12784;SDS011;6456;42.680;23.260;2023-07-29T08:58:22;3.13;;;2.92;;
12784;SDS011;6456;42.680;23.260;2023-07-29T09:00:50;6.22;;;3.67;;
12784;SDS011;6456;42.680;23.260;2023-07-29T09:03:17;5.53;;;3.20;;
12784;SDS011;6456;42.680;23.260;2023-07-29T09:05:45;3.40;;;3.10;;
12784;SDS011;6456;42.680;23.260;2023-07-29T09:08:12;4.55;;;2.90;;
12784;SDS011;6456;42.680;23.260;2023-07-29T09:10:40;2.55;;;2.20;;
12784;SDS011;6456;42.680;23.260;2023-07-29T09:13:07;3.55;;;1.88;;
12784;SDS011;6456;42.680;23.260;2023-07-29T09:15:35;2.55;;;2.35;;
12784;SDS011;6456;42.680;23.260;2023-07-29T09:18:09;3.08;;;2.55;;
12784;SDS011;6456;42.680;23.260;2023-07-29T09:20:36;2.78;;;2.58;;
12784;SDS011;6456;42.680;23.260;2023-07-29T09:23:06;2.70;;;2.40;;
12784;SDS011;6456;42.680;23.260;2023-07-29T09:25:34;2.40;;;2.20;;
12784;SDS011;6456;42.680;23.260;2023-07-29T09:28:01;2.03;;;1.92;;
12784;SDS011;6456;42.680;23.260;2023-07-29T09:30:34;2.30;;;2.10;;
12784;SDS011;6456;42.680;23.260;2023-07-29T09:33:00;2.58;;;2.00;;
12784;SDS011;6456;42.680;23.260;2023-07-29T09:35:28;2.30;;;2.00;;
12784;SDS011;6456;42.680;23.260;2023-07-29T09:37:58;5.93;;;2.28;;
12784;SDS011;6456;42.680;23.260;2023-07-29T09:40:26;2.55;;;2.28;;
12784;SDS011;6456;42.680;23.260;2023-07-29T09:42:54;2.72;;;2.28;;
12784;SDS011;6456;42.680;23.260;2023-07-29T09:45:21;2.75;;;2.20;;
12784;SDS011;6456;42.680;23.260;2023-07-29T09:47:49;2.45;;;2.25;;
12784;SDS011;6456;42.680;23.260;2023-07-29T09:50:16;4.15;;;2.42;;
12784;SDS011;6456;42.680;23.260;2023-07-29T09:52:44;5.03;;;1.88;;
12784;SDS011;6456;42.680;23.260;2023-07-29T09:55:12;3.58;;;2.00;;
12784;SDS011;6456;42.680;23.260;2023-07-29T09:57:41;1.80;;;1.70;;
12784;SDS011;6456;42.680;23.260;2023-07-29T10:00:10;2.90;;;2.20;;
12784;SDS011;6456;42.680;23.260;2023-07-29T10:02:39;1.80;;;1.70;;
12784;SDS011;6456;42.680;23.260;2023-07-29T10:05:06;5.28;;;2.30;;
12784;SDS011;6456;42.680;23.260;2023-07-29T10:07:34;1.80;;;1.70;;
12784;SDS011;6456;42.680;23.260;2023-07-29T10:10:03;1.63;;;1.55;;
12784;SDS011;6456;42.680;23.260;2023-07-29T10:12:32;2.20;;;1.70;;
12784;SDS011;6456;42.680;23.260;2023-07-29T10:15:02;2.13;;;2.03;;
12784;SDS011;6456;42.680;23.260;2023-07-29T10:17:31;5.30;;;2.00;;
12784;SDS011;6456;42.680;23.260;2023-07-29T10:20:00;3.42;;;1.50;;
12784;SDS011;6456;42.680;23.260;2023-07-29T10:22:37;1.52;;;1.42;;
12784;SDS011;6456;42.680;23.260;2023-07-29T10:25:07;2.65;;;1.50;;
12784;SDS011;6456;42.680;23.260;2023-07-29T10:27:37;1.42;;;1.30;;
12784;SDS011;6456;42.680;23.260;2023-07-29T10:30:11;2.90;;;1.80;;
12784;SDS011;6456;42.680;23.260;2023-07-29T10:32:41;2.60;;;1.92;;
12784;SDS011;6456;42.680;23.260;2023-07-29T10:35:10;1.98;;;1.85;;
12784;SDS011;6456;42.680;23.260;2023-07-29T10:37:38;4.15;;;1.73;;
12784;SDS011;6456;42.680;23.260;2023-07-29T10:40:07;1.70;;;1.60;;
12784;SDS011;6456;42.680;23.260;2023-07-29T10:42:35;1.67;;;1.58;;
12784;SDS011;6456;42.680;23.260;2023-07-29T10:45:18;2.50;;;1.90;;
12784;SDS011;6456;42.680;23.260;2023-07-29T10:47:46;1.50;;;1.48;;
12784;SDS011;6456;42.680;23.260;2023-07-29T10:50:17;3.42;;;1.60;;
12784;SDS011;6456;42.680;23.260;2023-07-29T10:52:46;1.30;;;1.30;;
12784;SDS011;6456;42.680;23.260;2023-07-29T10:55:23;2.13;;;1.50;;
12784;SDS011;6456;42.680;23.260;2023-07-29T10:57:51;2.10;;;1.95;;
12784;SDS011;6456;42.680;23.260;2023-07-29T11:00:20;3.70;;;1.60;;
12784;SDS011;6456;42.680;23.260;2023-07-29T11:02:56;1.60;;;1.50;;
12784;SDS011;6456;42.680;23.260;2023-07-29T11:05:26;1.50;;;1.40;;
12784;SDS011;6456;42.680;23.260;2023-07-29T11:07:53;1.88;;;1.70;;
12784;SDS011;6456;42.680;23.260;2023-07-29T11:10:20;2.30;;;1.33;;
12784;SDS011;6456;42.680;23.260;2023-07-29T11:12:49;1.98;;;1.33;;
12784;SDS011;6456;42.680;23.260;2023-07-29T11:15:18;2.40;;;1.52;;
12784;SDS011;6456;42.680;23.260;2023-07-29T11:17:48;1.50;;;1.40;;
12784;SDS011;6456;42.680;23.260;2023-07-29T11:20:17;1.40;;;1.30;;
12784;SDS011;6456;42.680;23.260;2023-07-29T11:22:44;1.35;;;1.30;;
12784;SDS011;6456;42.680;23.260;2023-07-29T11:25:12;2.58;;;1.30;;
12784;SDS011;6456;42.680;23.260;2023-07-29T11:27:40;1.83;;;1.73;;
12784;SDS011;6456;42.680;23.260;2023-07-29T11:30:08;4.00;;;1.45;;
12784;SDS011;6456;42.680;23.260;2023-07-29T11:32:36;1.40;;;1.30;;
12784;SDS011;6456;42.680;23.260;2023-07-29T11:35:06;1.38;;;1.30;;
12784;SDS011;6456;42.680;23.260;2023-07-29T11:37:36;5.07;;;1.33;;
12784;SDS011;6456;42.680;23.260;2023-07-29T11:40:04;1.60;;;1.27;;
12784;SDS011;6456;42.680;23.260;2023-07-29T11:42:32;1.42;;;1.33;;
12784;SDS011;6456;42.680;23.260;2023-07-29T11:44:59;2.15;;;1.50;;
12784;SDS011;6456;42.680;23.260;2023-07-29T11:47:27;2.03;;;1.25;;
12784;SDS011;6456;42.680;23.260;2023-07-29T11:49:54;2.28;;;1.25;;
12784;SDS011;6456;42.680;23.260;2023-07-29T11:52:25;2.88;;;1.52;;
12784;SDS011;6456;42.680;23.260;2023-07-29T11:54:53;1.60;;;1.30;;
12784;SDS011;6456;42.680;23.260;2023-07-29T11:57:20;1.38;;;1.27;;
12784;SDS011;6456;42.680;23.260;2023-07-29T11:59:47;1.40;;;1.27;;
12784;SDS011;6456;42.680;23.260;2023-07-29T12:02:15;1.00;;;1.00;;
12784;SDS011;6456;42.680;23.260;2023-07-29T12:04:43;2.00;;;1.30;;
12784;SDS011;6456;42.680;23.260;2023-07-29T12:07:12;1.30;;;1.23;;
12784;SDS011;6456;42.680;23.260;2023-07-29T12:09:40;6.13;;;1.58;;
12784;SDS011;6456;42.680;23.260;2023-07-29T12:12:08;1.35;;;1.25;;
12784;SDS011;6456;42.680;23.260;2023-07-29T12:14:36;3.13;;;1.52;;
12784;SDS011;6456;42.680;23.260;2023-07-29T12:17:04;1.40;;;1.30;;
12784;SDS011;6456;42.680;23.260;2023-07-29T12:19:32;1.50;;;1.40;;
12784;SDS011;6456;42.680;23.260;2023-07-29T12:22:00;1.30;;;1.20;;
12784;SDS011;6456;42.680;23.260;2023-07-29T12:24:29;1.77;;;1.30;;
12784;SDS011;6456;42.680;23.260;2023-07-29T12:26:57;1.67;;;1.58;;
12784;SDS011;6456;42.680;23.260;2023-07-29T12:29:24;1.60;;;1.50;;
12784;SDS011;6456;42.680;23.260;2023-07-29T12:31:56;1.58;;;1.40;;
12784;SDS011;6456;42.680;23.260;2023-07-29T12:34:24;2.40;;;1.65;;
12784;SDS011;6456;42.680;23.260;2023-07-29T12:36:52;1.33;;;1.27;;
12784;SDS011;6456;42.680;23.260;2023-07-29T12:39:21;1.48;;;1.38;;
12784;SDS011;6456;42.680;23.260;2023-07-29T12:41:49;1.50;;;1.40;;
12784;SDS011;6456;42.680;23.260;2023-07-29T12:44:19;1.45;;;1.35;;
12784;SDS011;6456;42.680;23.260;2023-07-29T12:46:46;1.25;;;1.25;;
12784;SDS011;6456;42.680;23.260;2023-07-29T12:49:13;2.00;;;1.13;;
12784;SDS011;6456;42.680;23.260;2023-07-29T12:51:40;3.17;;;1.23;;
12784;SDS011;6456;42.680;23.260;2023-07-29T12:54:07;2.08;;;1.30;;
12784;SDS011;6456;42.680;23.260;2023-07-29T12:56:34;2.20;;;1.23;;
12784;SDS011;6456;42.680;23.260;2023-07-29T12:59:01;1.40;;;1.30;;
12784;SDS011;6456;42.680;23.260;2023-07-29T13:01:30;1.40;;;1.30;;
12784;SDS011;6456;42.680;23.260;2023-07-29T13:03:56;1.55;;;1.45;;
12784;SDS011;6456;42.680;23.260;2023-07-29T13:06:23;1.60;;;1.50;;
12784;SDS011;6456;42.680;23.260;2023-07-29T13:08:50;1.25;;;1.15;;
12784;SDS011;6456;42.680;23.260;2023-07-29T13:11:17;1.20;;;1.20;;
12784;SDS011;6456;42.680;23.260;2023-07-29T13:13:44;1.60;;;1.50;;
12784;SDS011;6456;42.680;23.260;2023-07-29T13:16:11;1.77;;;1.42;;
12784;SDS011;6456;42.680;23.260;2023-07-29T13:18:40;2.08;;;1.40;;
12784;SDS011;6456;42.680;23.260;2023-07-29T13:21:07;1.48;;;1.38;;
12784;SDS011;6456;42.680;23.260;2023-07-29T13:23:34;2.55;;;1.40;;
12784;SDS011;6456;42.680;23.260;2023-07-29T13:26:00;1.88;;;1.77;;
12784;SDS011;6456;42.680;23.260;2023-07-29T13:28:27;1.83;;;1.55;;
12784;SDS011;6456;42.680;23.260;2023-07-29T13:30:54;2.55;;;1.65;;
12784;SDS011;6456;42.680;23.260;2023-07-29T13:33:21;2.38;;;1.52;;
12784;SDS011;6456;42.680;23.260;2023-07-29T13:35:49;1.45;;;1.35;;
12784;SDS011;6456;42.680;23.260;2023-07-29T13:38:16;2.05;;;1.95;;
12784;SDS011;6456;42.680;23.260;2023-07-29T13:40:45;1.80;;;1.70;;
12784;SDS011;6456;42.680;23.260;2023-07-29T13:43:11;3.53;;;2.05;;
12784;SDS011;6456;42.680;23.260;2023-07-29T13:45:38;4.32;;;2.92;;
12784;SDS011;6456;42.680;23.260;2023-07-29T13:48:05;5.65;;;3.20;;
12784;SDS011;6456;42.680;23.260;2023-07-29T13:50:32;3.80;;;2.80;;
12784;SDS011;6456;42.680;23.260;2023-07-29T13:53:00;2.95;;;2.50;;
12784;SDS011;6456;42.680;23.260;2023-07-29T13:55:27;4.82;;;2.35;;
12784;SDS011;6456;42.680;23.260;2023-07-29T13:57:54;3.03;;;2.60;;
12784;SDS011;6456;42.680;23.260;2023-07-29T14:00:21;4.18;;;2.60;;
12784;SDS011;6456;42.680;23.260;2023-07-29T14:02:48;3.78;;;2.80;;
12784;SDS011;6456;42.680;23.260;2023-07-29T14:05:14;2.70;;;2.50;;
12784;SDS011;6456;42.680;23.260;2023-07-29T14:07:41;2.58;;;2.38;;
12784;SDS011;6456;42.680;23.260;2023-07-29T14:10:10;2.72;;;2.53;;
12784;SDS011;6456;42.680;23.260;2023-07-29T14:12:36;7.22;;;6.03;;
12784;SDS011;6456;42.680;23.260;2023-07-29T14:15:04;4.43;;;3.40;;
12784;SDS011;6456;42.680;23.260;2023-07-29T14:17:31;3.97;;;3.05;;
12784;SDS011;6456;42.680;23.260;2023-07-29T14:19:58;3.78;;;2.63;;
12784;SDS011;6456;42.680;23.260;2023-07-29T14:22:25;3.50;;;2.25;;
12784;SDS011;6456;42.680;23.260;2023-07-29T14:24:52;2.67;;;2.47;;
12784;SDS011;6456;42.680;23.260;2023-07-29T14:27:21;3.25;;;3.00;;
12784;SDS011;6456;42.680;23.260;2023-07-29T14:29:47;2.17;;;2.00;;
12784;SDS011;6456;42.680;23.260;2023-07-29T14:32:14;3.10;;;1.92;;
12784;SDS011;6456;42.680;23.260;2023-07-29T14:34:41;2.45;;;2.22;;
12784;SDS011;6456;42.680;23.260;2023-07-29T14:37:08;2.35;;;2.22;;
12784;SDS011;6456;42.680;23.260;2023-07-29T14:39:35;3.25;;;2.28;;
12784;SDS011;6456;42.680;23.260;2023-07-29T14:42:02;2.05;;;1.95;;
12784;SDS011;6456;42.680;23.260;2023-07-29T14:44:30;2.10;;;2.00;;
12784;SDS011;6456;42.680;23.260;2023-07-29T14:46:57;2.05;;;1.85;;
12784;SDS011;6456;42.680;23.260;2023-07-29T14:49:24;2.80;;;1.80;;
12784;SDS011;6456;42.680;23.260;2023-07-29T14:51:51;2.00;;;1.90;;